首页
METAR-TAF:

METAR-TAF

机场 :

帕多瓦, 意大利

纬度: 45-23-45N, 经度: 11-50-53E, 海拔: 13米

当前天气观测

该预报发布于17小时和2分钟前的08:25 UTC
风速3节,风向多变
温度 16°C
湿度 94%
气压 1015 hPa
能見度: 2000
多云层高于500英尺
轻雾

METAR: LIPU 160825Z VRB03KT 2000 BR BKN005 16/15 Q1015

时间: 03:27 (01:27 UTC)


TAF: 丢失

超过4000个机场的气象观测和天气预报(METAR&TAF报告)。

可查询的气象台以黄色和红色小点在地图上表示。

将鼠标移到小点上方,可查看气象台名称。

然后点击查看天气观测和预报。

如需切换地图:点击带黑十字的绿色按钮放大地图;点击带横线的绿色按钮缩小地图;或者点击绿色箭头查看邻近地区的地图。


METAR-TAF: